Time;durP1;ratioP1;P1;durP2;ratioP2;P2;SDS_P1;SDS_P2;PMS_P1;PMS_P2;Temp;Humidity;BMP_temperature;BMP_pressure;BME280_temperature;BME280_humidity;BME280_pressure;Samples;Min_cycle;Max_cycle;Signal;HPM_P1;HPM_P2
2021/01/18 04:14:08;;;;;;;1.70;1.60;;;-13.00;88.30;;;;;;4953673;29;20063;-74
2021/01/18 04:16:40;;;;;;;1.48;1.38;;;-13.10;88.50;;;;;;4959741;29;20387;-74
2021/01/18 04:19:06;;;;;;;1.75;1.58;;;-13.10;88.80;;;;;;4959941;29;20031;-76
2021/01/18 04:21:35;;;;;;;1.70;1.60;;;-13.10;88.60;;;;;;4959725;28;20046;-76
2021/01/18 04:24:01;;;;;;;1.88;1.77;;;-13.20;88.10;;;;;;4959891;28;20054;-76
2021/01/18 04:26:27;;;;;;;1.90;1.80;;;-13.30;88.10;;;;;;4959702;28;20483;-76
2021/01/18 04:28:53;;;;;;;1.73;1.63;;;-13.30;88.60;;;;;;4959767;29;20031;-76
2021/01/18 04:31:18;;;;;;;2.33;1.80;;;-13.40;88.60;;;;;;4959678;29;20026;-76
2021/01/18 04:33:44;;;;;;;1.40;1.40;;;-13.40;88.80;;;;;;4959705;28;20023;-76
2021/01/18 04:36:10;;;;;;;1.67;1.58;;;-13.40;88.40;;;;;;4959818;28;20042;-76
2021/01/18 04:38:35;;;;;;;1.58;1.50;;;-13.50;88.20;;;;;;4959831;29;20026;-76
2021/01/18 04:41:01;;;;;;;2.03;1.50;;;-13.60;88.30;;;;;;4956379;28;20416;-76
2021/01/18 04:43:28;;;;;;;1.80;1.70;;;-13.70;89.10;;;;;;4956535;29;20051;-77
2021/01/18 04:45:54;;;;;;;1.65;1.52;;;-13.70;88.60;;;;;;4956671;28;20027;-77
2021/01/18 04:48:19;;;;;;;1.40;1.40;;;-13.70;88.70;;;;;;4956592;28;20082;-76
2021/01/18 04:50:46;;;;;;;1.80;1.70;;;-13.80;88.30;;;;;;4956600;29;20031;-77
2021/01/18 04:53:17;;;;;;;1.95;1.85;;;-13.80;88.40;;;;;;4956483;29;20031;-77
2021/01/18 04:55:42;;;;;;;2.00;1.88;;;-13.90;88.50;;;;;;4956328;29;20542;-77
2021/01/18 04:58:16;;;;;;;1.92;1.83;;;-13.90;88.20;;;;;;4956410;29;20031;-76
2021/01/18 05:00:41;;;;;;;1.75;1.58;;;-13.90;88.90;;;;;;4956254;29;20028;-77
2021/01/18 05:03:09;;;;;;;1.70;1.60;;;-13.90;88.40;;;;;;4971013;28;20185;-76
2021/01/18 05:05:56;;;;;;;1.92;1.65;;;-13.90;88.50;;;;;;4956364;29;20023;-75
2021/01/18 05:08:27;;;;;;;1.80;1.70;;;-14.00;88.20;;;;;;4956291;29;20118;-75
2021/01/18 05:10:56;;;;;;;6.13;1.75;;;-14.00;88.40;;;;;;4956145;29;20023;-74
2021/01/18 05:13:22;;;;;;;1.80;1.70;;;-14.00;88.40;;;;;;4955734;29;20138;-74
2021/01/18 05:15:48;;;;;;;1.88;1.75;;;-14.00;88.10;;;;;;4956023;29;20114;-74
2021/01/18 05:18:14;;;;;;;2.05;1.95;;;-14.00;87.90;;;;;;4956038;29;20034;-74
2021/01/18 05:20:40;;;;;;;2.00;1.90;;;-14.00;87.80;;;;;;4956017;29;20036;-76
2021/01/18 05:23:09;;;;;;;2.08;1.88;;;-14.10;87.50;;;;;;4955857;29;20126;-75
2021/01/18 05:25:35;;;;;;;1.60;1.50;;;-14.00;87.70;;;;;;4955862;29;20019;-75
2021/01/18 05:28:03;;;;;;;1.67;1.58;;;-14.10;87.40;;;;;;4955765;29;20118;-74
2021/01/18 05:30:33;;;;;;;1.90;1.80;;;-14.10;87.40;;;;;;4955756;29;20118;-73
2021/01/18 05:33:01;;;;;;;1.80;1.70;;;-14.00;87.10;;;;;;4955721;29;20553;-75
2021/01/18 05:35:27;;;;;;;1.92;1.70;;;-14.10;87.20;;;;;;4955699;29;20027;-78
2021/01/18 05:38:10;;;;;;;2.03;1.90;;;-14.10;86.90;;;;;;4955718;29;20028;-77
2021/01/18 05:40:40;;;;;;;2.25;2.00;;;-14.10;87.10;;;;;;4955552;29;20110;-73
2021/01/18 05:43:06;;;;;;;;;;;-13.90;99.90;;;;;;4955976;29;20031;-74
2021/01/18 05:45:40;;;;;;;1.80;1.70;;;-12.90;99.90;;;;;;4955660;28;19906;-74
2021/01/18 05:48:07;;;;;;;1.90;1.80;;;-13.00;99.90;;;;;;4955486;29;20034;-75
2021/01/18 05:50:35;;;;;;;3.10;1.80;;;-13.40;93.60;;;;;;4955405;29;20142;-72
2021/01/18 05:53:02;;;;;;;1.70;1.60;;;-13.70;90.90;;;;;;4955048;28;20514;-72
2021/01/18 05:55:31;;;;;;;5.85;3.20;;;-13.80;90.50;;;;;;4955160;29;20057;-74
2021/01/18 05:58:02;;;;;;;3.83;3.22;;;-13.90;90.00;;;;;;4954517;29;20062;-72
2021/01/18 06:00:29;;;;;;;;;;;-14.10;89.00;;;;;;4954522;29;20035;-72
2021/01/18 06:02:55;;;;;;;2.10;1.98;;;-14.10;88.00;;;;;;4954455;28;19918;-72
2021/01/18 06:05:36;;;;;;;1.92;1.83;;;-14.10;87.70;;;;;;4954828;29;20027;-72
2021/01/18 06:08:12;;;;;;;;;;;-14.10;87.60;;;;;;4955541;29;20027;-72
2021/01/18 06:10:38;;;;;;;2.10;1.90;;;-14.20;86.60;;;;;;4952667;29;20358;-72
2021/01/18 06:13:16;;;;;;;1.85;1.75;;;-14.30;86.40;;;;;;4954129;29;20502;-77
2021/01/18 06:15:42;;;;;;;2.00;1.90;;;-14.30;86.30;;;;;;4954884;29;20062;-73
2021/01/18 06:18:14;;;;;;;2.20;2.10;;;-14.40;86.30;;;;;;4953980;28;20069;-73
2021/01/18 06:20:42;;;;;;;2.10;1.90;;;-14.50;86.80;;;;;;4954638;28;20027;-78
2021/01/18 06:23:08;;;;;;;1.90;1.80;;;-14.50;87.00;;;;;;4954614;29;20094;-75
2021/01/18 06:25:39;;;;;;;4.07;2.15;;;-14.50;86.80;;;;;;4954712;28;20062;-78
2021/01/18 06:28:27;;;;;;;4.90;2.53;;;-14.50;87.10;;;;;;4954188;29;20034;-69
2021/01/18 06:31:00;;;;;;;4.10;2.40;;;-14.40;99.90;;;;;;4954770;28;20111;-76
2021/01/18 06:33:39;;;;;;;3.28;2.20;;;-14.00;99.90;;;;;;4954501;29;20019;-76
2021/01/18 06:36:14;;;;;;;2.35;1.90;;;-14.10;92.10;;;;;;4954719;29;20051;-76
2021/01/18 06:38:44;;;;;;;3.42;2.40;;;-14.30;90.00;;;;;;4954413;29;20023;-76
2021/01/18 06:41:10;;;;;;;2.05;1.90;;;-14.40;88.50;;;;;;4954642;29;20027;-76
2021/01/18 06:43:44;;;;;;;1.70;1.60;;;-14.40;87.90;;;;;;4953013;29;20035;-75
2021/01/18 06:46:25;;;;;;;2.25;1.88;;;-14.20;99.90;;;;;;4954611;29;20051;-77
2021/01/18 06:48:52;;;;;;;2.42;2.10;;;-13.10;99.90;;;;;;4954426;29;20055;-77
2021/01/18 06:51:20;;;;;;;2.15;1.90;;;-13.10;99.90;;;;;;4954422;29;20039;-76
2021/01/18 06:53:47;;;;;;;1.80;1.70;;;-13.50;94.00;;;;;;4954202;28;20380;-75
2021/01/18 06:56:19;;;;;;;2.63;2.10;;;-13.90;90.70;;;;;;4954414;29;20023;-76
2021/01/18 06:59:03;;;;;;;2.03;1.92;;;-14.10;90.00;;;;;;4954069;29;20430;-75
2021/01/18 07:01:37;;;;;;;2.30;2.08;;;-14.30;89.30;;;;;;4954182;29;20078;-74
2021/01/18 07:04:08;;;;;;;1.90;1.70;;;-14.40;87.90;;;;;;4953462;28;20550;-76
2021/01/18 07:06:39;;;;;;;2.63;1.70;;;-14.50;87.90;;;;;;4954064;29;20036;-75
2021/01/18 07:09:11;;;;;;;;;;;-14.60;87.80;;;;;;4954418;29;20039;-76
2021/01/18 07:11:38;;;;;;;2.35;2.03;;;-14.60;86.60;;;;;;4954080;28;19997;-75
2021/01/18 07:14:10;;;;;;;2.08;1.98;;;-14.60;86.20;;;;;;4953802;29;20051;-74
2021/01/18 07:16:38;;;;;;;1.98;1.88;;;-14.70;86.00;;;;;;4953991;29;20054;-74
2021/01/18 07:19:06;;;;;;;2.10;1.90;;;-14.80;85.90;;;;;;4953908;29;20027;-80
2021/01/18 07:21:47;;;;;;;3.80;1.80;;;-14.80;86.00;;;;;;4954021;29;20026;-80
2021/01/18 07:24:15;;;;;;;2.83;1.85;;;-14.80;86.10;;;;;;4968867;28;20491;-75
2021/01/18 07:26:55;;;;;;;5.97;2.35;;;-14.80;85.90;;;;;;4953894;29;20026;-79
2021/01/18 07:29:25;;;;;;;2.55;1.90;;;-14.90;85.90;;;;;;4954097;29;20076;-78
2021/01/18 07:31:54;;;;;;;1.90;1.73;;;-14.90;85.80;;;;;;4954221;29;20028;-76
2021/01/18 07:34:22;;;;;;;1.92;1.83;;;-15.00;85.70;;;;;;4953927;29;20031;-78
2021/01/18 07:36:49;;;;;;;1.83;1.73;;;-15.00;86.30;;;;;;4953879;29;20082;-76
2021/01/18 07:39:34;;;;;;;2.10;2.00;;;-15.10;85.40;;;;;;4953810;29;20054;-76
2021/01/18 07:42:01;;;;;;;2.10;2.00;;;-15.00;85.90;;;;;;4953694;29;20446;-75
2021/01/18 07:44:35;;;;;;;2.33;1.67;;;-15.00;85.70;;;;;;4953173;29;20035;-76
2021/01/18 07:47:09;;;;;;;1.90;1.70;;;-15.10;85.70;;;;;;4953698;28;20102;-77
2021/01/18 07:49:39;;;;;;;2.00;1.90;;;-15.10;85.40;;;;;;4949526;28;20151;-78
2021/01/18 07:52:16;;;;;;;2.03;1.93;;;-15.20;85.40;;;;;;4950906;28;20023;-77
2021/01/18 07:54:43;;;;;;;1.45;1.38;;;-15.20;85.60;;;;;;4952076;29;20024;-78
2021/01/18 07:57:27;;;;;;;1.55;1.45;;;-15.20;84.80;;;;;;4951845;28;20034;-76
2021/01/18 08:00:19;;;;;;;2.13;1.92;;;-15.20;84.90;;;;;;4952476;28;20166;-76
2021/01/18 08:02:50;;;;;;;3.72;1.77;;;-15.30;85.10;;;;;;4949179;28;20046;-76
2021/01/18 08:05:35;;;;;;;1.75;1.65;;;-15.10;98.80;;;;;;4952905;29;20023;-75
2021/01/18 08:08:05;;;;;;;1.75;1.65;;;-12.40;99.90;;;;;;4953237;29;20052;-76
2021/01/18 08:10:51;;;;;;;3.10;1.75;;;-10.20;99.90;;;;;;4952896;28;20070;-76
2021/01/18 08:13:49;;;;;;;1.75;1.65;;;-11.00;99.90;;;;;;4952020;29;20045;-76
2021/01/18 08:16:15;;;;;;;3.33;2.10;;;-12.40;99.90;;;;;;4956711;28;20499;-77
2021/01/18 08:18:51;;;;;;;1.92;1.83;;;-13.40;99.90;;;;;;4956806;28;20038;-77
2021/01/18 08:21:34;;;;;;;2.03;1.83;;;-14.00;99.90;;;;;;4956910;29;20114;-76
2021/01/18 08:24:04;;;;;;;1.95;1.80;;;-14.40;99.30;;;;;;4955564;29;20066;-77
2021/01/18 08:26:57;;;;;;;2.53;1.73;;;-14.70;96.50;;;;;;4956947;29;20031;-76
2021/01/18 08:29:41;;;;;;;1.77;1.67;;;-15.00;94.20;;;;;;4953899;28;20102;-77
2021/01/18 08:32:30;;;;;;;1.85;1.67;;;-15.00;92.70;;;;;;4956755;28;20038;-77
2021/01/18 08:35:01;;;;;;;1.90;1.80;;;-15.10;91.30;;;;;;4956769;28;20019;-77
2021/01/18 08:37:28;;;;;;;1.85;1.73;;;-15.10;90.30;;;;;;4956522;28;20265;-77
2021/01/18 08:40:03;;;;;;;2.00;1.90;;;-15.10;90.00;;;;;;4956558;29;20023;-76
2021/01/18 08:42:37;;;;;;;5.10;2.17;;;-15.10;88.70;;;;;;4956452;29;20040;-76
2021/01/18 08:45:19;;;;;;;1.83;1.73;;;-15.10;88.30;;;;;;4956660;29;20023;-77
2021/01/18 08:47:52;;;;;;;2.17;2.00;;;-15.20;87.30;;;;;;4956488;29;20035;-76
2021/01/18 08:50:23;;;;;;;2.05;1.90;;;-15.30;86.80;;;;;;4956558;28;20027;-76
2021/01/18 08:52:57;;;;;;;2.58;1.83;;;-15.40;86.10;;;;;;4956514;29;20078;-77
2021/01/18 08:55:29;;;;;;;1.90;1.75;;;-15.40;86.40;;;;;;4956681;29;20027;-77
2021/01/18 08:58:02;;;;;;;1.75;1.65;;;-15.40;85.90;;;;;;4956453;28;20031;-76
2021/01/18 09:00:44;;;;;;;2.03;1.92;;;-15.50;85.30;;;;;;4956665;28;20023;-76
2021/01/18 09:03:17;;;;;;;1.88;1.77;;;-15.50;85.50;;;;;;4956275;28;20039;-77
2021/01/18 09:05:47;;;;;;;1.55;1.50;;;-15.60;85.50;;;;;;4956324;29;20482;-77
2021/01/18 09:08:15;;;;;;;2.97;2.05;;;-15.60;85.20;;;;;;4956482;29;20023;-76
2021/01/18 09:10:58;;;;;;;1.83;1.73;;;-15.60;85.40;;;;;;4956007;29;20040;-77
2021/01/18 09:13:26;;;;;;;1.77;1.67;;;-15.70;85.20;;;;;;4956212;29;20114;-76
2021/01/18 09:15:53;;;;;;;1.88;1.77;;;-15.70;85.00;;;;;;4955807;29;20052;-76
2021/01/18 09:18:22;;;;;;;1.73;1.63;;;-15.80;84.90;;;;;;4956241;29;20042;-76
2021/01/18 09:20:49;;;;;;;3.58;1.92;;;-15.80;85.20;;;;;;4956267;28;20082;-76
2021/01/18 09:23:15;;;;;;;1.80;1.70;;;-15.90;85.20;;;;;;4955780;29;20042;-76
2021/01/18 09:25:41;;;;;;;1.88;1.73;;;-13.10;99.90;;;;;;4955289;28;20031;-77
2021/01/18 09:28:09;;;;;;;4.10;2.20;;;-12.50;99.90;;;;;;4955817;29;20023;-76
2021/01/18 09:30:36;;;;;;;2.17;1.85;;;-13.30;99.90;;;;;;4955854;28;20030;-77
2021/01/18 09:33:04;;;;;;;1.80;1.70;;;-13.80;99.90;;;;;;4955807;29;20368;-75
2021/01/18 09:35:33;;;;;;;2.45;1.95;;;-14.30;99.90;;;;;;4955743;29;20534;-74
2021/01/18 09:37:59;;;;;;;2.28;2.08;;;-13.90;99.90;;;;;;4955816;29;20058;-80
2021/01/18 09:40:25;;;;;;;2.45;2.05;;;-13.70;99.90;;;;;;4955664;29;20494;-78
2021/01/18 09:42:53;;;;;;;4.43;2.45;;;-14.00;99.90;;;;;;4955318;29;20094;-74
2021/01/18 09:45:19;;;;;;;2.50;1.70;;;-14.10;99.90;;;;;;4955150;29;20553;-73
2021/01/18 09:47:46;;;;;;;6.07;2.25;;;-13.90;99.50;;;;;;4955173;28;20031;-74
2021/01/18 09:50:14;;;;;;;3.00;2.08;;;-14.20;91.20;;;;;;4953610;28;20102;-74
2021/01/18 09:52:44;;;;;;;4.75;1.95;;;-14.50;88.90;;;;;;4954761;29;20423;-75
2021/01/18 09:55:14;;;;;;;2.65;2.45;;;-14.80;87.60;;;;;;4954809;29;20022;-74
2021/01/18 09:57:44;;;;;;;5.38;2.08;;;-15.00;87.20;;;;;;4954835;28;20499;-77
2021/01/18 10:00:11;;;;;;;4.75;1.70;;;-15.00;87.20;;;;;;4955470;29;20019;-78
2021/01/18 10:02:44;;;;;;;3.80;2.28;;;-15.10;86.70;;;;;;4955452;28;20399;-74
2021/01/18 10:05:22;;;;;;;5.25;1.75;;;-15.20;86.40;;;;;;4955131;29;20081;-75
2021/01/18 10:07:53;;;;;;;4.22;1.80;;;-15.30;85.30;;;;;;4955116;29;20031;-76
2021/01/18 10:10:19;;;;;;;3.42;2.15;;;-15.30;85.60;;;;;;4955329;29;20034;-76
2021/01/18 10:12:54;;;;;;;1.77;1.67;;;-15.40;85.40;;;;;;4954919;29;20479;-81
2021/01/18 10:15:26;;;;;;;8.60;2.22;;;-15.40;85.50;;;;;;4954685;29;20054;-76
2021/01/18 10:17:55;;;;;;;2.70;1.88;;;-15.40;85.50;;;;;;4954916;28;20380;-81
2021/01/18 10:20:28;;;;;;;3.83;2.17;;;-15.40;85.30;;;;;;4965175;28;20023;-82
2021/01/18 10:22:55;;;;;;;2.33;1.95;;;-15.40;85.30;;;;;;4957014;28;20044;-82
2021/01/18 10:25:25;;;;;;;1.65;1.55;;;-15.50;85.20;;;;;;4955149;29;20106;-83
2021/01/18 10:27:53;;;;;;;2.15;1.77;;;-15.50;85.30;;;;;;4954877;29;20591;-83
2021/01/18 10:30:27;;;;;;;3.13;2.10;;;-15.50;84.90;;;;;;4954790;29;20503;-82
2021/01/18 10:32:55;;;;;;;4.45;1.95;;;-15.60;85.10;;;;;;4954633;29;20023;-83
2021/01/18 10:35:21;;;;;;;2.70;1.80;;;-15.60;85.40;;;;;;4953545;29;20416;-82
2021/01/18 10:37:47;;;;;;;1.60;1.50;;;-15.50;85.30;;;;;;4954019;28;20026;-83
2021/01/18 10:40:13;;;;;;;3.25;1.50;;;-15.60;85.30;;;;;;4953071;29;20126;-84
2021/01/18 10:42:53;;;;;;;1.60;1.50;;;-15.50;85.40;;;;;;4954160;29;20059;-80
2021/01/18 10:45:25;;;;;;;1.40;1.30;;;-15.50;85.40;;;;;;4953534;29;20019;-82
2021/01/18 10:48:01;;;;;;;1.98;1.88;;;-14.70;99.90;;;;;;4952702;28;20029;-82
2021/01/18 10:50:29;;;;;;;1.63;1.50;;;-13.80;99.90;;;;;;4953923;29;20030;-74
2021/01/18 10:53:26;;;;;;;3.25;1.70;;;-14.30;99.90;;;;;;4953880;28;20055;-71
2021/01/18 10:56:08;;;;;;;1.80;1.60;;;-14.70;94.30;;;;;;4951234;29;20031;-80
2021/01/18 10:58:33;;;;;;;1.77;1.60;;;-15.00;91.80;;;;;;4933459;29;20027;-80
2021/01/18 11:01:07;;;;;;;1.90;1.50;;;-15.00;90.70;;;;;;4948887;29;20398;-80
2021/01/18 11:03:33;;;;;;;1.73;1.63;;;-15.00;89.70;;;;;;4953813;28;20365;-81
2021/01/18 11:06:00;;;;;;;1.65;1.55;;;-15.10;88.40;;;;;;4953241;28;20053;-81
2021/01/18 11:08:30;;;;;;;1.48;1.40;;;-15.20;87.90;;;;;;4953577;29;20034;-81
2021/01/18 11:10:55;;;;;;;;;;;-15.20;88.00;;;;;;4954436;29;20395;-80
2021/01/18 11:13:21;;;;;;;1.40;1.40;;;-15.10;87.50;;;;;;4953478;29;19910;-75
2021/01/18 11:15:50;;;;;;;3.83;1.60;;;-15.10;87.20;;;;;;4953377;28;20043;-74
2021/01/18 11:18:20;;;;;;;1.42;1.40;;;-15.10;87.00;;;;;;4953944;29;20051;-77
2021/01/18 11:20:52;;;;;;;1.70;1.60;;;-15.10;86.50;;;;;;4953898;29;20086;-76
2021/01/18 11:23:18;;;;;;;1.70;1.60;;;-15.20;86.30;;;;;;4953871;29;20038;-75
2021/01/18 11:25:43;;;;;;;2.45;1.58;;;-15.20;86.60;;;;;;4953845;29;20543;-77
2021/01/18 11:28:11;;;;;;;1.52;1.42;;;-15.20;86.40;;;;;;4953803;28;20569;-69
2021/01/18 11:30:37;;;;;;;1.70;1.60;;;-15.20;86.30;;;;;;4953963;29;20039;-74
2021/01/18 11:33:05;;;;;;;11.20;1.60;;;-15.20;86.60;;;;;;4954051;29;20027;-74
2021/01/18 11:35:31;;;;;;;2.15;1.60;;;-15.10;86.90;;;;;;4953940;29;20110;-73
2021/01/18 11:37:57;;;;;;;4.90;1.92;;;-15.20;86.70;;;;;;4953998;29;20185;-74
2021/01/18 11:40:23;;;;;;;1.40;1.40;;;-15.10;86.60;;;;;;4953975;29;20062;-74
2021/01/18 11:42:49;;;;;;;1.40;1.30;;;-15.10;86.70;;;;;;4954014;29;20039;-74
2021/01/18 11:45:15;;;;;;;1.60;1.50;;;-15.10;86.60;;;;;;4953892;28;20030;-74
2021/01/18 11:47:41;;;;;;;1.60;1.50;;;-15.10;86.50;;;;;;4953907;29;20106;-74
2021/01/18 11:50:11;;;;;;;3.10;1.80;;;-15.20;86.10;;;;;;4955660;28;20492;-74
2021/01/18 11:52:44;;;;;;;1.42;1.40;;;-15.20;86.20;;;;;;4958001;29;20034;-74
2021/01/18 11:55:12;;;;;;;1.20;1.20;;;-15.20;86.40;;;;;;4957461;29;20031;-74
2021/01/18 11:57:42;;;;;;;2.25;2.05;;;-15.20;86.60;;;;;;4957795;29;20039;-74
2021/01/18 12:00:09;;;;;;;1.50;1.50;;;-15.20;86.40;;;;;;4957403;29;20019;-74
2021/01/18 12:02:35;;;;;;;1.65;1.55;;;-15.20;86.20;;;;;;4957400;28;20059;-74
2021/01/18 12:05:02;;;;;;;1.38;1.27;;;-15.20;86.10;;;;;;4957341;29;20027;-74
2021/01/18 12:07:28;;;;;;;1.98;1.50;;;-15.20;86.10;;;;;;4957339;29;20027;-74
2021/01/18 12:09:53;;;;;;;1.27;1.23;;;-15.20;86.10;;;;;;4956257;29;20031;-75
2021/01/18 12:12:19;;;;;;;1.27;1.27;;;-15.30;86.20;;;;;;4956904;29;20027;-74
2021/01/18 12:14:46;;;;;;;1.42;1.33;;;-15.30;86.00;;;;;;4956314;28;20470;-74
2021/01/18 12:17:12;;;;;;;1.65;1.55;;;-15.30;86.10;;;;;;4956212;29;20058;-75
2021/01/18 12:19:37;;;;;;;2.47;1.73;;;-15.30;86.50;;;;;;4956658;29;20444;-76
2021/01/18 12:22:03;;;;;;;1.60;1.50;;;-15.30;86.60;;;;;;4956800;29;20059;-78
2021/01/18 12:24:29;;;;;;;1.60;1.50;;;-15.30;86.60;;;;;;4956793;29;20066;-77
2021/01/18 12:26:55;;;;;;;1.70;1.60;;;-15.30;86.60;;;;;;4956898;29;20518;-78
2021/01/18 12:29:21;;;;;;;1.48;1.38;;;-15.40;86.60;;;;;;4956836;29;20027;-77
2021/01/18 12:31:47;;;;;;;1.98;1.70;;;-15.30;86.80;;;;;;4956763;29;20031;-76
2021/01/18 12:34:13;;;;;;;1.60;1.50;;;-14.70;99.90;;;;;;4956483;29;20023;-76
2021/01/18 12:36:40;;;;;;;1.55;1.45;;;-14.40;99.90;;;;;;4956642;29;20566;-74
2021/01/18 12:39:07;;;;;;;1.25;1.25;;;-14.60;99.90;;;;;;4956350;29;20031;-75
2021/01/18 12:41:33;;;;;;;2.10;1.50;;;-14.10;99.90;;;;;;4956649;29;20031;-75
2021/01/18 12:43:59;;;;;;;1.50;1.40;;;-14.40;98.10;;;;;;4956463;29;20649;-78
2021/01/18 12:46:25;;;;;;;1.48;1.38;;;-14.60;93.10;;;;;;4956451;29;20132;-77
2021/01/18 12:48:51;;;;;;;3.25;1.50;;;-12.80;99.90;;;;;;4956440;29;20168;-77
2021/01/18 12:51:17;;;;;;;2.17;1.98;;;-12.80;99.90;;;;;;4956499;29;20102;-77
2021/01/18 12:53:43;;;;;;;2.80;1.80;;;-13.50;99.90;;;;;;4956525;29;20027;-77
2021/01/18 12:56:10;;;;;;;1.70;1.60;;;-14.10;99.90;;;;;;4956502;29;20505;-77
2021/01/18 12:58:36;;;;;;;1.67;1.58;;;-14.40;97.10;;;;;;4956662;28;20125;-77
2021/01/18 13:01:02;;;;;;;1.60;1.50;;;-14.60;93.90;;;;;;4955710;28;20547;-76
2021/01/18 13:03:28;;;;;;;1.27;1.27;;;-14.70;92.60;;;;;;4956166;29;20097;-76
2021/01/18 13:05:54;;;;;;;1.60;1.50;;;-14.50;99.90;;;;;;4956615;29;20023;-77
2021/01/18 13:08:20;;;;;;;17.80;5.50;;;-13.00;99.90;;;;;;4956361;29;20530;-75
2021/01/18 13:10:46;;;;;;;2.15;1.95;;;-12.40;99.90;;;;;;4956294;29;20527;-75
2021/01/18 13:13:11;;;;;;;1.67;1.58;;;-13.10;99.90;;;;;;4956313;29;20110;-76
2021/01/18 13:15:37;;;;;;;1.80;1.70;;;-13.80;95.20;;;;;;4956043;29;20055;-76
2021/01/18 13:18:03;;;;;;;1.85;1.75;;;-14.20;92.50;;;;;;4955858;29;20032;-78
2021/01/18 13:20:29;;;;;;;1.60;1.50;;;-14.40;91.30;;;;;;4956096;28;20023;-76
2021/01/18 13:22:55;;;;;;;1.67;1.50;;;-14.50;91.50;;;;;;4954456;29;20439;-76
2021/01/18 13:25:21;;;;;;;1.88;1.73;;;-14.60;90.90;;;;;;4955834;29;20027;-76
2021/01/18 13:27:47;;;;;;;1.40;1.40;;;-14.70;90.20;;;;;;4955422;29;20035;-75
2021/01/18 13:30:13;;;;;;;1.88;1.60;;;-14.80;89.40;;;;;;4955480;28;20028;-74
2021/01/18 13:32:38;;;;;;;1.77;1.67;;;-14.80;89.70;;;;;;4955787;29;20027;-77
2021/01/18 13:35:08;;;;;;;1.60;1.50;;;-14.90;89.40;;;;;;4955629;29;20110;-77
2021/01/18 13:37:35;;;;;;;2.20;1.65;;;-15.00;88.70;;;;;;4955804;28;20028;-74
2021/01/18 13:40:01;;;;;;;1.55;1.48;;;-15.00;88.40;;;;;;4955514;29;20027;-75
2021/01/18 13:42:27;;;;;;;1.60;1.50;;;-15.10;88.00;;;;;;4955618;29;20106;-75
2021/01/18 13:44:52;;;;;;;2.00;1.80;;;-15.10;87.90;;;;;;4954281;29;20042;-75
2021/01/18 13:47:18;;;;;;;2.33;1.48;;;-15.10;88.00;;;;;;4955596;29;20051;-75
2021/01/18 13:49:44;;;;;;;1.73;1.63;;;-15.20;87.60;;;;;;4955407;28;20024;-75
2021/01/18 13:52:10;;;;;;;1.70;1.60;;;-15.20;87.20;;;;;;4955374;29;20031;-75
2021/01/18 13:54:35;;;;;;;1.73;1.60;;;-15.30;86.90;;;;;;4955256;29;20020;-75
2021/01/18 13:57:02;;;;;;;1.77;1.67;;;-15.30;86.90;;;;;;4955301;29;20038;-75
2021/01/18 13:59:29;;;;;;;1.73;1.63;;;-15.30;86.80;;;;;;4955242;28;20027;-76
2021/01/18 14:02:01;;;;;;;1.70;1.60;;;-15.40;86.80;;;;;;4955231;29;20158;-76
2021/01/18 14:04:27;;;;;;;2.55;1.75;;;-15.40;86.80;;;;;;4955393;29;20059;-75
2021/01/18 14:06:52;;;;;;;4.40;1.98;;;-15.50;86.90;;;;;;4955068;28;20491;-76
2021/01/18 14:09:19;;;;;;;2.03;1.80;;;-15.40;86.90;;;;;;4955031;28;20028;-75
2021/01/18 14:11:47;;;;;;;1.88;1.50;;;-15.50;86.80;;;;;;4955125;28;20020;-76
2021/01/18 14:14:13;;;;;;;1.55;1.55;;;-15.50;86.80;;;;;;4954616;28;20074;-76
2021/01/18 14:16:43;;;;;;;1.80;1.70;;;-15.60;86.70;;;;;;4955095;29;20066;-76
2021/01/18 14:19:08;;;;;;;1.80;1.70;;;-15.60;86.80;;;;;;4955086;28;20026;-77
2021/01/18 14:21:35;;;;;;;1.80;1.70;;;-15.70;86.50;;;;;;4954966;29;20027;-77
2021/01/18 14:24:06;;;;;;;1.83;1.73;;;-15.70;87.10;;;;;;4954264;29;20039;-77
2021/01/18 14:26:32;;;;;;;1.80;1.70;;;-15.70;87.10;;;;;;4954763;29;20483;-78
2021/01/18 14:28:58;;;;;;;2.20;2.08;;;-15.70;87.20;;;;;;4954891;29;20039;-79
2021/01/18 14:31:26;;;;;;;1.80;1.60;;;-15.70;87.10;;;;;;4954908;29;20031;-76
2021/01/18 14:33:53;;;;;;;3.30;1.73;;;-15.70;87.80;;;;;;4954739;29;20086;-77
2021/01/18 14:36:21;;;;;;;2.63;1.92;;;-15.70;86.70;;;;;;4954730;29;20027;-79
2021/01/18 14:38:47;;;;;;;1.50;1.40;;;-15.70;86.60;;;;;;4954701;28;20566;-78
2021/01/18 14:41:21;;;;;;;1.85;1.75;;;-15.70;86.50;;;;;;4953272;29;20027;-75
2021/01/18 14:43:48;;;;;;;2.33;1.60;;;-15.80;86.50;;;;;;4954510;29;20034;-79
2021/01/18 14:46:15;;;;;;;3.10;1.67;;;-15.70;86.70;;;;;;4954601;28;20086;-75
2021/01/18 14:48:41;;;;;;;1.40;1.40;;;-15.70;86.60;;;;;;4954019;29;20055;-74
2021/01/18 14:51:08;;;;;;;1.67;1.58;;;-15.70;86.50;;;;;;4945495;29;20051;-75
2021/01/18 14:53:34;;;;;;;2.60;1.73;;;-15.80;86.40;;;;;;4944334;29;20027;-75
2021/01/18 14:56:00;;;;;;;1.70;1.60;;;-15.80;86.40;;;;;;4953851;29;20019;-74
2021/01/18 14:58:26;;;;;;;1.65;1.58;;;-15.80;86.60;;;;;;4953998;29;20439;-74
2021/01/18 15:00:52;;;;;;;1.75;1.65;;;-15.80;86.40;;;;;;4953952;29;20019;-75
2021/01/18 15:03:18;;;;;;;1.75;1.65;;;-15.90;86.40;;;;;;4954314;29;20054;-75
2021/01/18 15:05:44;;;;;;;2.15;1.95;;;-15.90;86.70;;;;;;4954131;28;20030;-75
2021/01/18 15:08:11;;;;;;;1.90;1.80;;;-15.90;86.70;;;;;;4954006;29;20058;-75
2021/01/18 15:10:37;;;;;;;2.17;2.00;;;-15.80;86.80;;;;;;4954070;29;20023;-75
2021/01/18 15:13:03;;;;;;;2.05;1.90;;;-15.80;86.70;;;;;;4953913;29;20085;-74
2021/01/18 15:15:29;;;;;;;2.42;2.22;;;-15.80;86.50;;;;;;4953902;29;20043;-75
2021/01/18 15:17:55;;;;;;;4.68;2.33;;;-15.80;86.50;;;;;;4953928;29;20043;-69
2021/01/18 15:20:21;;;;;;;2.35;1.95;;;-15.80;86.40;;;;;;4954235;29;20019;-75
2021/01/18 15:22:47;;;;;;;2.03;1.73;;;-15.80;86.20;;;;;;4953933;29;20030;-68
2021/01/18 15:25:13;;;;;;;2.45;2.08;;;-15.80;87.80;;;;;;4953253;29;20178;-75
2021/01/18 15:27:39;;;;;;;2.10;1.90;;;-14.00;99.90;;;;;;4954054;29;20036;-75
2021/01/18 15:30:09;;;;;;;1.60;1.50;;;-14.30;99.90;;;;;;4950525;29;20607;-75
2021/01/18 15:32:35;;;;;;;1.70;1.60;;;-14.80;99.90;;;;;;4948991;28;20035;-76
2021/01/18 15:35:04;;;;;;;1.88;1.77;;;-15.20;99.90;;;;;;4952179;29;20031;-76
2021/01/18 15:37:30;;;;;;;1.80;1.70;;;-15.40;97.10;;;;;;4947237;29;20504;-75
2021/01/18 15:39:56;;;;;;;1.75;1.65;;;-15.50;94.20;;;;;;4936231;29;20032;-72
2021/01/18 15:42:22;;;;;;;1.70;1.60;;;-15.60;92.50;;;;;;4949105;29;20042;-73
2021/01/18 15:44:48;;;;;;;1.98;1.80;;;-15.70;91.20;;;;;;4953329;28;20039;-73
2021/01/18 15:47:15;;;;;;;3.13;2.42;;;-15.70;90.90;;;;;;4952991;28;20495;-73
2021/01/18 15:49:41;;;;;;;1.70;1.60;;;-15.70;90.70;;;;;;4953493;29;20023;-73
2021/01/18 15:52:07;;;;;;;1.70;1.60;;;-15.80;90.00;;;;;;4952625;29;20030;-73
2021/01/18 15:54:33;;;;;;;1.70;1.60;;;-15.80;89.80;;;;;;4952829;28;20517;-82
2021/01/18 15:56:59;;;;;;;1.77;1.67;;;-15.80;89.70;;;;;;4951668;29;20033;-80
2021/01/18 15:59:25;;;;;;;1.98;1.83;;;-15.80;89.70;;;;;;4953570;29;20055;-80
2021/01/18 16:01:50;;;;;;;1.73;1.63;;;-15.80;89.80;;;;;;4953211;29;20032;-79
2021/01/18 16:04:17;;;;;;;4.30;2.20;;;-15.80;89.30;;;;;;4951664;29;20384;-80
2021/01/18 16:06:44;;;;;;;3.42;2.17;;;-15.80;88.70;;;;;;4953332;29;20028;-80
2021/01/18 16:09:10;;;;;;;2.42;2.22;;;-15.80;88.70;;;;;;4952379;28;20038;-79
2021/01/18 16:11:39;;;;;;;1.73;1.63;;;-15.80;88.50;;;;;;4952074;29;20031;-80
2021/01/18 16:14:14;;;;;;;2.00;1.83;;;-15.90;88.00;;;;;;4951945;29;20043;-80
2021/01/18 16:16:40;;;;;;;2.22;1.80;;;-16.00;88.40;;;;;;4952817;28;20035;-79
2021/01/18 16:19:06;;;;;;;2.17;1.85;;;-15.80;89.10;;;;;;4950061;29;20353;-80
2021/01/18 16:21:40;;;;;;;4.63;2.00;;;-15.90;88.70;;;;;;4952722;29;20034;-80
2021/01/18 16:24:10;;;;;;;1.98;1.88;;;-15.90;88.50;;;;;;4952725;28;20127;-81
2021/01/18 16:26:38;;;;;;;1.77;1.67;;;-15.90;88.50;;;;;;4952872;29;20383;-79
2021/01/18 16:29:03;;;;;;;1.80;1.70;;;-15.80;88.30;;;;;;4952400;29;20035;-80
2021/01/18 16:31:29;;;;;;;2.45;2.00;;;-15.80;88.60;;;;;;4952385;29;20103;-78
2021/01/18 16:33:55;;;;;;;1.80;1.70;;;-15.90;87.90;;;;;;4952429;29;20094;-79
2021/01/18 16:36:22;;;;;;;1.70;1.60;;;-15.80;88.00;;;;;;4954818;28;20059;-74
2021/01/18 16:38:49;;;;;;;1.98;1.88;;;-15.90;88.00;;;;;;4956614;29;20027;-78
2021/01/18 16:41:15;;;;;;;1.88;1.65;;;-15.90;88.40;;;;;;4971448;28;20027;-77
2021/01/18 16:43:42;;;;;;;2.10;1.90;;;-15.90;88.80;;;;;;4956729;28;20517;-78
2021/01/18 16:46:08;;;;;;;1.90;1.80;;;-15.80;89.20;;;;;;4956606;29;20084;-78
2021/01/18 16:48:34;;;;;;;1.85;1.75;;;-15.80;89.00;;;;;;4956698;28;20031;-79
2021/01/18 16:51:00;;;;;;;3.15;2.13;;;-15.80;89.30;;;;;;4956750;28;20028;-77
2021/01/18 16:53:26;;;;;;;1.90;1.80;;;-15.80;89.10;;;;;;4956942;28;20384;-80
2021/01/18 16:55:52;;;;;;;3.03;2.00;;;-15.80;88.90;;;;;;4956477;28;20027;-79
2021/01/18 16:58:17;;;;;;;3.10;2.17;;;-15.80;88.90;;;;;;4956232;28;20034;-79
2021/01/18 17:00:45;;;;;;;2.50;2.30;;;-15.80;88.80;;;;;;4956226;29;20078;-79